sensor_id;sensor_type;location;lat;lon;timestamp;P1;durP1;ratioP1;P2;durP2;ratioP2
55728;SDS011;41633;39.720;2.910;2022-11-02T00:00:30;16.70;;;6.38;;
55728;SDS011;41633;39.720;2.910;2022-11-02T00:02:56;15.45;;;6.32;;
55728;SDS011;41633;39.720;2.910;2022-11-02T00:07:49;17.25;;;7.03;;
55728;SDS011;41633;39.720;2.910;2022-11-02T00:10:15;13.98;;;6.30;;
55728;SDS011;41633;39.720;2.910;2022-11-02T00:12:42;16.55;;;6.45;;
55728;SDS011;41633;39.720;2.910;2022-11-02T00:15:09;15.85;;;6.75;;
55728;SDS011;41633;39.720;2.910;2022-11-02T00:17:35;12.07;;;5.82;;
55728;SDS011;41633;39.720;2.910;2022-11-02T00:20:02;16.90;;;6.63;;
55728;SDS011;41633;39.720;2.910;2022-11-02T00:22:29;19.10;;;6.13;;
55728;SDS011;41633;39.720;2.910;2022-11-02T00:24:57;17.08;;;6.85;;
55728;SDS011;41633;39.720;2.910;2022-11-02T00:27:24;18.70;;;6.70;;
55728;SDS011;41633;39.720;2.910;2022-11-02T00:32:16;18.00;;;6.60;;
55728;SDS011;41633;39.720;2.910;2022-11-02T00:34:42;14.35;;;6.13;;
55728;SDS011;41633;39.720;2.910;2022-11-02T00:39:34;16.58;;;6.10;;
55728;SDS011;41633;39.720;2.910;2022-11-02T00:42:00;14.55;;;6.03;;
55728;SDS011;41633;39.720;2.910;2022-11-02T00:46:52;13.50;;;5.93;;
55728;SDS011;41633;39.720;2.910;2022-11-02T00:49:19;13.07;;;5.97;;
55728;SDS011;41633;39.720;2.910;2022-11-02T00:54:11;12.80;;;6.28;;
55728;SDS011;41633;39.720;2.910;2022-11-02T00:56:37;15.25;;;5.95;;
55728;SDS011;41633;39.720;2.910;2022-11-02T01:01:30;16.15;;;6.05;;
55728;SDS011;41633;39.720;2.910;2022-11-02T01:06:22;16.25;;;6.13;;
55728;SDS011;41633;39.720;2.910;2022-11-02T01:08:48;14.93;;;6.68;;
55728;SDS011;41633;39.720;2.910;2022-11-02T01:11:17;17.50;;;6.63;;
55728;SDS011;41633;39.720;2.910;2022-11-02T01:13:44;13.95;;;6.18;;
55728;SDS011;41633;39.720;2.910;2022-11-02T01:16:11;15.40;;;5.65;;
55728;SDS011;41633;39.720;2.910;2022-11-02T01:18:37;20.35;;;7.57;;
55728;SDS011;41633;39.720;2.910;2022-11-02T01:23:32;15.02;;;5.85;;
55728;SDS011;41633;39.720;2.910;2022-11-02T01:26:05;15.32;;;6.40;;
55728;SDS011;41633;39.720;2.910;2022-11-02T01:28:31;17.23;;;6.80;;
55728;SDS011;41633;39.720;2.910;2022-11-02T01:33:24;17.80;;;6.57;;
55728;SDS011;41633;39.720;2.910;2022-11-02T01:35:50;17.10;;;6.35;;
55728;SDS011;41633;39.720;2.910;2022-11-02T01:38:17;15.18;;;5.75;;
55728;SDS011;41633;39.720;2.910;2022-11-02T01:45:44;15.00;;;5.45;;
55728;SDS011;41633;39.720;2.910;2022-11-02T01:48:11;11.77;;;5.28;;
55728;SDS011;41633;39.720;2.910;2022-11-02T01:50:37;13.60;;;5.28;;
55728;SDS011;41633;39.720;2.910;2022-11-02T01:53:03;17.20;;;5.85;;
55728;SDS011;41633;39.720;2.910;2022-11-02T01:55:30;14.93;;;5.43;;
55728;SDS011;41633;39.720;2.910;2022-11-02T01:58:01;17.25;;;6.18;;
55728;SDS011;41633;39.720;2.910;2022-11-02T02:00:27;14.38;;;5.15;;
55728;SDS011;41633;39.720;2.910;2022-11-02T02:05:20;15.15;;;5.53;;
55728;SDS011;41633;39.720;2.910;2022-11-02T02:07:46;13.55;;;5.03;;
55728;SDS011;41633;39.720;2.910;2022-11-02T02:10:14;14.80;;;5.35;;
55728;SDS011;41633;39.720;2.910;2022-11-02T02:15:06;17.13;;;5.07;;
55728;SDS011;41633;39.720;2.910;2022-11-02T02:30:36;15.18;;;5.20;;
55728;SDS011;41633;39.720;2.910;2022-11-02T02:33:13;15.93;;;4.68;;
55728;SDS011;41633;39.720;2.910;2022-11-02T02:35:43;15.07;;;4.75;;
55728;SDS011;41633;39.720;2.910;2022-11-02T02:38:11;13.05;;;4.53;;
55728;SDS011;41633;39.720;2.910;2022-11-02T02:40:55;11.82;;;3.97;;
55728;SDS011;41633;39.720;2.910;2022-11-02T02:43:33;13.65;;;4.43;;
55728;SDS011;41633;39.720;2.910;2022-11-02T02:46:03;13.18;;;3.85;;
55728;SDS011;41633;39.720;2.910;2022-11-02T02:48:30;13.35;;;4.53;;
55728;SDS011;41633;39.720;2.910;2022-11-02T02:51:00;17.85;;;4.25;;
55728;SDS011;41633;39.720;2.910;2022-11-02T02:53:39;15.25;;;4.47;;
55728;SDS011;41633;39.720;2.910;2022-11-02T02:56:06;14.07;;;4.57;;
55728;SDS011;41633;39.720;2.910;2022-11-02T02:58:42;13.13;;;3.97;;
55728;SDS011;41633;39.720;2.910;2022-11-02T03:01:10;12.30;;;4.15;;
55728;SDS011;41633;39.720;2.910;2022-11-02T03:03:38;14.95;;;4.18;;
55728;SDS011;41633;39.720;2.910;2022-11-02T03:08:31;16.27;;;3.97;;
55728;SDS011;41633;39.720;2.910;2022-11-02T03:18:48;14.38;;;4.43;;
55728;SDS011;41633;39.720;2.910;2022-11-02T03:21:24;14.10;;;4.45;;
55728;SDS011;41633;39.720;2.910;2022-11-02T03:24:54;14.60;;;3.92;;
55728;SDS011;41633;39.720;2.910;2022-11-02T03:29:23;15.05;;;4.55;;
55728;SDS011;41633;39.720;2.910;2022-11-02T03:31:57;15.52;;;4.50;;
55728;SDS011;41633;39.720;2.910;2022-11-02T03:37:01;15.10;;;4.68;;
55728;SDS011;41633;39.720;2.910;2022-11-02T03:39:31;14.95;;;4.68;;
55728;SDS011;41633;39.720;2.910;2022-11-02T03:41:58;11.48;;;4.20;;
55728;SDS011;41633;39.720;2.910;2022-11-02T03:44:26;9.80;;;3.60;;
55728;SDS011;41633;39.720;2.910;2022-11-02T03:46:54;14.02;;;4.70;;
55728;SDS011;41633;39.720;2.910;2022-11-02T03:49:22;13.60;;;4.60;;
55728;SDS011;41633;39.720;2.910;2022-11-02T03:51:49;14.65;;;4.80;;
55728;SDS011;41633;39.720;2.910;2022-11-02T03:54:34;13.88;;;4.50;;
55728;SDS011;41633;39.720;2.910;2022-11-02T03:57:04;16.27;;;4.95;;
55728;SDS011;41633;39.720;2.910;2022-11-02T03:59:32;14.02;;;4.70;;
55728;SDS011;41633;39.720;2.910;2022-11-02T04:01:58;14.48;;;5.00;;
55728;SDS011;41633;39.720;2.910;2022-11-02T04:04:25;16.23;;;5.50;;
55728;SDS011;41633;39.720;2.910;2022-11-02T04:06:51;15.40;;;5.25;;
55728;SDS011;41633;39.720;2.910;2022-11-02T04:11:43;13.98;;;5.95;;
55728;SDS011;41633;39.720;2.910;2022-11-02T04:14:28;13.52;;;5.72;;
55728;SDS011;41633;39.720;2.910;2022-11-02T04:17:03;14.80;;;4.70;;
55728;SDS011;41633;39.720;2.910;2022-11-02T04:19:49;17.40;;;5.90;;
55728;SDS011;41633;39.720;2.910;2022-11-02T04:22:15;20.02;;;5.90;;
55728;SDS011;41633;39.720;2.910;2022-11-02T04:25:00;16.90;;;5.63;;
55728;SDS011;41633;39.720;2.910;2022-11-02T04:27:49;12.73;;;4.88;;
55728;SDS011;41633;39.720;2.910;2022-11-02T04:30:16;15.93;;;5.50;;
55728;SDS011;41633;39.720;2.910;2022-11-02T04:32:43;13.57;;;5.35;;
55728;SDS011;41633;39.720;2.910;2022-11-02T04:35:29;16.45;;;5.30;;
55728;SDS011;41633;39.720;2.910;2022-11-02T04:37:55;13.20;;;5.15;;
55728;SDS011;41633;39.720;2.910;2022-11-02T04:40:40;13.35;;;5.40;;
55728;SDS011;41633;39.720;2.910;2022-11-02T04:43:06;16.60;;;5.85;;
55728;SDS011;41633;39.720;2.910;2022-11-02T04:45:32;14.10;;;6.38;;
55728;SDS011;41633;39.720;2.910;2022-11-02T04:47:59;20.40;;;7.10;;
55728;SDS011;41633;39.720;2.910;2022-11-02T04:50:25;15.77;;;7.25;;
55728;SDS011;41633;39.720;2.910;2022-11-02T04:52:58;15.93;;;7.10;;
55728;SDS011;41633;39.720;2.910;2022-11-02T04:55:25;18.17;;;6.40;;
55728;SDS011;41633;39.720;2.910;2022-11-02T05:00:18;14.82;;;6.68;;
55728;SDS011;41633;39.720;2.910;2022-11-02T05:02:45;16.75;;;6.10;;
55728;SDS011;41633;39.720;2.910;2022-11-02T05:05:11;13.35;;;5.57;;
55728;SDS011;41633;39.720;2.910;2022-11-02T05:10:04;16.65;;;5.78;;
55728;SDS011;41633;39.720;2.910;2022-11-02T05:12:30;17.48;;;5.47;;
55728;SDS011;41633;39.720;2.910;2022-11-02T05:14:56;14.18;;;5.10;;
55728;SDS011;41633;39.720;2.910;2022-11-02T05:17:22;16.02;;;5.60;;
